Hlavní strana
METAR-TAF:

METAR-TAF

Letiště :

Liberia, Kostarika

zeměpisná šířka: 10-37N, zeměpisná délka: 085-26W, výška: 80 m

Aktuální stav počasí

Zpráva byla vytvořena před 4 hodinami a 40 minutami, v 06:00 UTC
Severoseverovýchodní vítr 3 kt
Teplota 23°C
Vlhkost vzduchu 83%
Tlak 1012 hPa
Viditelnost 10 km a více
Žádná oblačnost pod 1500 m, nevyskytují se cumulonimby.

METAR: MRLB 240600Z 03003KT CAVOK 23/20 A2989

Čas: 04:40 (10:40 UTC)

Předpověď počasí

Zpráva byla vytvořena před 5 hodinami a 40 minutami, v 05:00 UTC
Předpověď platná od 24 v 06 UTC do 25 v 06 UTC
Východojihovýchodní vítr 7 kt
Viditelnost 10 km a více
Skoro jasno ve výšce 4500 ft
Dočasný
od 24 v 08 UTC do 24 v 14 UTC
Západní vítr 4 kt

TAF: MRLB 240500Z 2406/2506 12007KT 9999 FEW045 TX33/2420Z TN22/2411Z TEMPO 2408/2414 26004KT

Stav a předpovědi počasí z více než 4 000 letišť (zprávy METAR a TAF).

Červené a žluté tečky na mapě představují dostupné meteorologické stanice.

Když kurzor umístíte na tečku, zobrazí se název stanice.

Pak kliknutím zobrazíte stav a předpověď počasí.

Chcete-li změnit mapu, kliknutím na zelené tlačítko se znaménkem +mapu přiblížíte, kliknutím na zelené tlačítko se znaménkem – mapu oddálíte a kliknutím na zelené šipky přejdete na sousední mapy.


METAR-TAF: